Main page
METAR-TAF:

METAR-TAF

Airports :

Oil platform

Norne Fpso, Norway

latitude: 66-01-48N, longitude: 008-04-48E, elevation: 10 m

Current weather observation

The report was made 22 minutes ago, at 09:50 UTC
Wind 26 kt from the Northeast
Temperature 7°C
Humidity 100%
Pressure 1013 hPa
Visibility: 6000 m
Scattered clouds at a height of 500 ft

METAR: ENNE 220950Z 05026KT 6000 SCT005 07/07 Q1013 W///S5

Time: 12:12 (10:12 UTC)

Forecast

The report was made 2 hours and 12 minutes ago, at 08:00 UTC
Forecast valid from 22 at 09 UTC to 22 at 17 UTC
Wind 25 kt from the North/Northeast
Visibility: 7000 m
Scattered clouds at a height of 500 ft
Temporary
from 22 at 09 UTC to 22 at 12 UTC
Visibility: 3000 m
Broken clouds at a height of 500 ft
mist
Becoming
from 22 at 10 UTC to 22 at 12 UTC
Wind 35 kt from the North/Northeast

TAF: ENNE 220800Z 2209/2217 02025KT 7000 SCT005 TEMPO 2209/2212 3000 BR BKN005 BECMG 2210/2212 03035KT

Weather observations and forecasts of more than 4000 airports (METAR and TAF reports).

The available stations are represented by yellow and red dots on the map.

Hover mouse over dot to see the name of the station.

Then click to see weather observations and forecasts.

To change the map : click on the green buttons with a black cross to zoom in, on the green button with a dash to zoom out, or on the green arrows for adjacent maps.


METAR-TAF: